sensor_id;sensor_type;location;lat;lon;timestamp;pressure;altitude;pressure_sealevel;temperature;humidity
30339;BME280;795;49.296;11.348;2022-12-07T00:01:45;96300.50;;;1.61;100.00
30339;BME280;795;49.296;11.348;2022-12-07T00:04:17;96291.59;;;1.62;100.00
30339;BME280;795;49.296;11.348;2022-12-07T00:06:50;96296.53;;;1.67;100.00
30339;BME280;795;49.296;11.348;2022-12-07T00:09:19;96288.84;;;1.64;100.00
30339;BME280;795;49.296;11.348;2022-12-07T00:11:51;96282.69;;;1.63;100.00
30339;BME280;795;49.296;11.348;2022-12-07T00:14:19;96290.28;;;1.57;100.00
30339;BME280;795;49.296;11.348;2022-12-07T00:16:51;96285.69;;;1.59;100.00
30339;BME280;795;49.296;11.348;2022-12-07T00:19:18;96279.09;;;1.64;100.00
30339;BME280;795;49.296;11.348;2022-12-07T00:21:45;96284.50;;;1.63;100.00
30339;BME280;795;49.296;11.348;2022-12-07T00:24:12;96280.66;;;1.67;100.00
30339;BME280;795;49.296;11.348;2022-12-07T00:26:41;96279.91;;;1.65;100.00
30339;BME280;795;49.296;11.348;2022-12-07T00:29:21;96274.25;;;1.58;100.00
30339;BME280;795;49.296;11.348;2022-12-07T00:31:49;96277.03;;;1.57;100.00
30339;BME280;795;49.296;11.348;2022-12-07T00:34:21;96275.97;;;1.59;100.00
30339;BME280;795;49.296;11.348;2022-12-07T00:36:49;96282.81;;;1.62;100.00
30339;BME280;795;49.296;11.348;2022-12-07T00:39:16;96279.09;;;1.64;100.00
30339;BME280;795;49.296;11.348;2022-12-07T00:41:44;96276.09;;;1.69;100.00
30339;BME280;795;49.296;11.348;2022-12-07T00:44:11;96282.47;;;1.66;100.00
30339;BME280;795;49.296;11.348;2022-12-07T00:46:38;96281.97;;;1.72;100.00
30339;BME280;795;49.296;11.348;2022-12-07T00:49:05;96274.75;;;1.63;100.00
30339;BME280;795;49.296;11.348;2022-12-07T00:51:32;96283.78;;;1.61;100.00
30339;BME280;795;49.296;11.348;2022-12-07T00:53:59;96280.75;;;1.65;100.00
30339;BME280;795;49.296;11.348;2022-12-07T00:56:29;96282.25;;;1.69;100.00
30339;BME280;795;49.296;11.348;2022-12-07T00:59:03;96281.88;;;1.74;100.00
30339;BME280;795;49.296;11.348;2022-12-07T01:01:35;96279.81;;;1.66;100.00
30339;BME280;795;49.296;11.348;2022-12-07T01:04:03;96277.88;;;1.68;100.00
30339;BME280;795;49.296;11.348;2022-12-07T01:06:31;96288.47;;;1.68;100.00
30339;BME280;795;49.296;11.348;2022-12-07T01:08:59;96284.13;;;1.67;100.00
30339;BME280;795;49.296;11.348;2022-12-07T01:11:29;96280.75;;;1.65;100.00
30339;BME280;795;49.296;11.348;2022-12-07T01:14:00;96285.34;;;1.63;100.00
30339;BME280;795;49.296;11.348;2022-12-07T01:16:31;96288.69;;;1.54;100.00
30339;BME280;795;49.296;11.348;2022-12-07T01:19:01;96290.38;;;1.55;100.00
30339;BME280;795;49.296;11.348;2022-12-07T01:21:34;96290.63;;;1.52;100.00
30339;BME280;795;49.296;11.348;2022-12-07T01:24:09;96295.41;;;1.47;100.00
30339;BME280;795;49.296;11.348;2022-12-07T01:26:36;96288.56;;;1.45;100.00
30339;BME280;795;49.296;11.348;2022-12-07T01:29:04;96289.16;;;1.48;100.00
30339;BME280;795;49.296;11.348;2022-12-07T01:31:31;96290.00;;;1.49;100.00
30339;BME280;795;49.296;11.348;2022-12-07T01:34:00;96293.63;;;1.48;100.00
30339;BME280;795;49.296;11.348;2022-12-07T01:36:34;96295.28;;;1.49;100.00
30339;BME280;795;49.296;11.348;2022-12-07T01:39:06;96290.63;;;1.52;100.00
30339;BME280;795;49.296;11.348;2022-12-07T01:41:39;96297.34;;;1.56;100.00
30339;BME280;795;49.296;11.348;2022-12-07T01:44:27;96297.47;;;1.55;100.00
30339;BME280;795;49.296;11.348;2022-12-07T01:47:01;96298.66;;;1.51;100.00
30339;BME280;795;49.296;11.348;2022-12-07T01:49:40;96296.72;;;1.53;100.00
30339;BME280;795;49.296;11.348;2022-12-07T01:52:25;96299.50;;;1.51;100.00
30339;BME280;795;49.296;11.348;2022-12-07T01:55:12;96292.91;;;1.57;100.00
30339;BME280;795;49.296;11.348;2022-12-07T01:57:46;96292.06;;;1.56;100.00
30339;BME280;795;49.296;11.348;2022-12-07T02:00:16;96296.41;;;1.57;100.00
30339;BME280;795;49.296;11.348;2022-12-07T02:03:09;96287.63;;;1.57;100.00
30339;BME280;795;49.296;11.348;2022-12-07T02:05:40;96289.78;;;1.63;100.00
30339;BME280;795;49.296;11.348;2022-12-07T02:08:10;96288.34;;;1.59;100.00
30339;BME280;795;49.296;11.348;2022-12-07T02:10:39;96293.50;;;1.60;100.00
30339;BME280;795;49.296;11.348;2022-12-07T02:13:19;96294.47;;;1.59;100.00
30339;BME280;795;49.296;11.348;2022-12-07T02:16:25;96289.19;;;1.59;100.00
30339;BME280;795;49.296;11.348;2022-12-07T02:19:30;96288.47;;;1.57;100.00
30339;BME280;795;49.296;11.348;2022-12-07T02:22:51;96281.84;;;1.52;100.00
30339;BME280;795;49.296;11.348;2022-12-07T02:26:23;96287.25;;;1.50;100.00
30339;BME280;795;49.296;11.348;2022-12-07T02:29:21;96289.66;;;1.53;100.00
30339;BME280;795;49.296;11.348;2022-12-07T02:32:18;96286.28;;;1.51;100.00
30339;BME280;795;49.296;11.348;2022-12-07T02:40:13;96292.31;;;1.64;100.00
30339;BME280;795;49.296;11.348;2022-12-07T02:42:50;96276.91;;;1.58;100.00
30339;BME280;795;49.296;11.348;2022-12-07T02:45:25;96276.41;;;1.53;100.00
30339;BME280;795;49.296;11.348;2022-12-07T02:47:59;96272.34;;;1.49;100.00
30339;BME280;795;49.296;11.348;2022-12-07T02:50:28;96267.75;;;1.51;100.00
30339;BME280;795;49.296;11.348;2022-12-07T02:52:55;96267.03;;;1.49;100.00
30339;BME280;795;49.296;11.348;2022-12-07T02:55:39;96265.69;;;1.44;100.00
30339;BME280;795;49.296;11.348;2022-12-07T02:58:38;96273.91;;;1.52;100.00
30339;BME280;795;49.296;11.348;2022-12-07T03:09:14;96269.34;;;1.54;100.00
30339;BME280;795;49.296;11.348;2022-12-07T03:12:09;96263.69;;;1.47;100.00
30339;BME280;795;49.296;11.348;2022-12-07T03:14:52;96262.47;;;1.51;100.00
30339;BME280;795;49.296;11.348;2022-12-07T03:17:30;96256.81;;;1.56;100.00
30339;BME280;795;49.296;11.348;2022-12-07T03:20:05;96258.03;;;1.52;100.00
30339;BME280;795;49.296;11.348;2022-12-07T03:22:39;96261.53;;;1.52;100.00
30339;BME280;795;49.296;11.348;2022-12-07T03:25:14;96258.88;;;1.52;100.00
30339;BME280;795;49.296;11.348;2022-12-07T03:28:16;96262.25;;;1.54;100.00
30339;BME280;795;49.296;11.348;2022-12-07T03:30:56;96257.41;;;1.48;100.00
30339;BME280;795;49.296;11.348;2022-12-07T03:33:38;96254.78;;;1.59;100.00
30339;BME280;795;49.296;11.348;2022-12-07T03:36:30;96243.50;;;1.57;100.00
30339;BME280;795;49.296;11.348;2022-12-07T03:42:03;96244.44;;;1.56;100.00
30339;BME280;795;49.296;11.348;2022-12-07T03:44:34;96241.56;;;1.59;100.00
30339;BME280;795;49.296;11.348;2022-12-07T03:47:19;96241.53;;;1.48;100.00
30339;BME280;795;49.296;11.348;2022-12-07T03:50:02;96239.13;;;1.34;100.00
30339;BME280;795;49.296;11.348;2022-12-07T03:53:15;96234.75;;;1.11;100.00
30339;BME280;795;49.296;11.348;2022-12-07T03:55:47;96232.97;;;0.88;100.00
30339;BME280;795;49.296;11.348;2022-12-07T03:58:22;96236.31;;;0.79;100.00
30339;BME280;795;49.296;11.348;2022-12-07T04:00:51;96230.13;;;0.67;100.00
30339;BME280;795;49.296;11.348;2022-12-07T04:03:18;96235.94;;;0.72;100.00
30339;BME280;795;49.296;11.348;2022-12-07T04:05:46;96233.63;;;0.68;100.00
30339;BME280;795;49.296;11.348;2022-12-07T04:08:12;96233.88;;;0.76;100.00
30339;BME280;795;49.296;11.348;2022-12-07T04:10:40;96235.50;;;0.65;100.00
30339;BME280;795;49.296;11.348;2022-12-07T04:13:07;96222.22;;;0.67;100.00
30339;BME280;795;49.296;11.348;2022-12-07T04:15:33;96219.97;;;0.50;100.00
30339;BME280;795;49.296;11.348;2022-12-07T04:18:00;96220.88;;;0.38;100.00
30339;BME280;795;49.296;11.348;2022-12-07T04:20:27;96210.22;;;0.27;100.00
30339;BME280;795;49.296;11.348;2022-12-07T04:22:54;96220.13;;;0.12;100.00
30339;BME280;795;49.296;11.348;2022-12-07T04:25:21;96217.34;;;-0.10;100.00
30339;BME280;795;49.296;11.348;2022-12-07T04:27:48;96217.38;;;-0.35;100.00
30339;BME280;795;49.296;11.348;2022-12-07T04:30:15;96211.38;;;-0.37;100.00
30339;BME280;795;49.296;11.348;2022-12-07T04:32:42;96209.34;;;-0.34;100.00
30339;BME280;795;49.296;11.348;2022-12-07T04:35:09;96206.22;;;-0.51;100.00
30339;BME280;795;49.296;11.348;2022-12-07T04:37:36;96208.22;;;-0.55;100.00
30339;BME280;795;49.296;11.348;2022-12-07T04:40:08;96197.06;;;-0.71;100.00
30339;BME280;795;49.296;11.348;2022-12-07T04:42:38;96200.44;;;-0.69;100.00
30339;BME280;795;49.296;11.348;2022-12-07T04:45:06;96199.50;;;-0.68;100.00
30339;BME280;795;49.296;11.348;2022-12-07T04:47:33;96212.44;;;-0.65;100.00
30339;BME280;795;49.296;11.348;2022-12-07T04:50:00;96207.59;;;-0.58;100.00
30339;BME280;795;49.296;11.348;2022-12-07T04:52:27;96211.25;;;-0.48;100.00
30339;BME280;795;49.296;11.348;2022-12-07T04:54:54;96214.13;;;-0.39;100.00
30339;BME280;795;49.296;11.348;2022-12-07T04:57:21;96226.00;;;-0.33;100.00
30339;BME280;795;49.296;11.348;2022-12-07T04:59:48;96212.81;;;-0.21;100.00
30339;BME280;795;49.296;11.348;2022-12-07T05:02:15;96226.72;;;-0.19;100.00
30339;BME280;795;49.296;11.348;2022-12-07T05:04:43;96234.84;;;-0.22;100.00
30339;BME280;795;49.296;11.348;2022-12-07T05:07:09;96228.84;;;-0.24;100.00
30339;BME280;795;49.296;11.348;2022-12-07T05:09:36;96230.34;;;-0.32;100.00
30339;BME280;795;49.296;11.348;2022-12-07T05:12:03;96234.03;;;-0.22;100.00
30339;BME280;795;49.296;11.348;2022-12-07T05:14:30;96236.16;;;-0.27;100.00
30339;BME280;795;49.296;11.348;2022-12-07T05:16:57;96239.13;;;-0.32;100.00
30339;BME280;795;49.296;11.348;2022-12-07T05:19:24;96243.81;;;-0.24;100.00
30339;BME280;795;49.296;11.348;2022-12-07T05:21:52;96235.28;;;-0.15;100.00
30339;BME280;795;49.296;11.348;2022-12-07T05:24:19;96242.03;;;-0.11;100.00
30339;BME280;795;49.296;11.348;2022-12-07T05:26:46;96244.44;;;-0.08;100.00
30339;BME280;795;49.296;11.348;2022-12-07T05:29:16;96245.50;;;-0.11;100.00
30339;BME280;795;49.296;11.348;2022-12-07T05:31:44;96243.06;;;-0.14;100.00
30339;BME280;795;49.296;11.348;2022-12-07T05:34:12;96237.91;;;-0.15;100.00
30339;BME280;795;49.296;11.348;2022-12-07T05:36:40;96244.25;;;-0.18;100.00
30339;BME280;795;49.296;11.348;2022-12-07T05:39:09;96235.16;;;-0.14;100.00
30339;BME280;795;49.296;11.348;2022-12-07T05:41:36;96235.69;;;-0.09;100.00
30339;BME280;795;49.296;11.348;2022-12-07T05:44:22;96248.22;;;0.00;100.00
30339;BME280;795;49.296;11.348;2022-12-07T05:46:49;96248.66;;;0.07;100.00
30339;BME280;795;49.296;11.348;2022-12-07T05:49:16;96256.78;;;0.04;100.00
30339;BME280;795;49.296;11.348;2022-12-07T05:51:43;96260.47;;;0.02;100.00
30339;BME280;795;49.296;11.348;2022-12-07T05:54:10;96250.22;;;0.10;100.00
30339;BME280;795;49.296;11.348;2022-12-07T05:56:37;96249.16;;;0.12;100.00
30339;BME280;795;49.296;11.348;2022-12-07T05:59:04;96245.84;;;0.21;100.00
30339;BME280;795;49.296;11.348;2022-12-07T06:02:05;96247.75;;;0.19;100.00
30339;BME280;795;49.296;11.348;2022-12-07T06:04:42;96250.41;;;0.19;100.00
30339;BME280;795;49.296;11.348;2022-12-07T06:07:11;96252.47;;;0.27;100.00
30339;BME280;795;49.296;11.348;2022-12-07T06:09:38;96246.91;;;0.19;100.00
30339;BME280;795;49.296;11.348;2022-12-07T06:12:09;96252.25;;;0.30;100.00
30339;BME280;795;49.296;11.348;2022-12-07T06:14:55;96251.97;;;0.22;100.00
30339;BME280;795;49.296;11.348;2022-12-07T06:17:22;96250.69;;;0.27;100.00
30339;BME280;795;49.296;11.348;2022-12-07T06:19:49;96250.63;;;0.40;100.00
30339;BME280;795;49.296;11.348;2022-12-07T06:22:16;96253.16;;;0.41;100.00
30339;BME280;795;49.296;11.348;2022-12-07T06:24:44;96248.13;;;0.38;100.00
30339;BME280;795;49.296;11.348;2022-12-07T06:27:11;96242.88;;;0.26;100.00
30339;BME280;795;49.296;11.348;2022-12-07T06:29:38;96246.25;;;0.28;100.00
30339;BME280;795;49.296;11.348;2022-12-07T06:32:05;96246.63;;;0.34;100.00
30339;BME280;795;49.296;11.348;2022-12-07T06:34:32;96249.41;;;0.33;100.00
30339;BME280;795;49.296;11.348;2022-12-07T06:36:59;96250.47;;;0.30;100.00
30339;BME280;795;49.296;11.348;2022-12-07T06:39:29;96250.06;;;0.24;100.00
30339;BME280;795;49.296;11.348;2022-12-07T06:41:57;96250.69;;;0.27;100.00
30339;BME280;795;49.296;11.348;2022-12-07T06:44:24;96256.25;;;0.35;100.00
30339;BME280;795;49.296;11.348;2022-12-07T06:46:52;96255.53;;;0.33;100.00
30339;BME280;795;49.296;11.348;2022-12-07T06:49:39;96251.91;;;0.34;100.00
30339;BME280;795;49.296;11.348;2022-12-07T06:52:06;96252.91;;;0.21;100.00
30339;BME280;795;49.296;11.348;2022-12-07T06:54:33;96255.31;;;0.36;100.00
30339;BME280;795;49.296;11.348;2022-12-07T06:57:00;96259.44;;;0.28;100.00
30339;BME280;795;49.296;11.348;2022-12-07T06:59:27;96263.31;;;0.35;100.00
30339;BME280;795;49.296;11.348;2022-12-07T07:01:53;96260.81;;;0.33;100.00
30339;BME280;795;49.296;11.348;2022-12-07T07:04:20;96258.69;;;0.38;100.00
30339;BME280;795;49.296;11.348;2022-12-07T07:06:47;96256.84;;;0.39;100.00
30339;BME280;795;49.296;11.348;2022-12-07T07:09:14;96254.00;;;0.42;100.00
30339;BME280;795;49.296;11.348;2022-12-07T07:11:41;96250.91;;;0.24;100.00
30339;BME280;795;49.296;11.348;2022-12-07T07:14:08;96260.34;;;0.39;100.00
30339;BME280;795;49.296;11.348;2022-12-07T07:16:35;96255.31;;;0.36;100.00
30339;BME280;795;49.296;11.348;2022-12-07T07:19:02;96259.50;;;0.39;100.00
30339;BME280;795;49.296;11.348;2022-12-07T07:21:29;96261.88;;;0.54;100.00
30339;BME280;795;49.296;11.348;2022-12-07T07:23:55;96263.28;;;0.47;100.00
30339;BME280;795;49.296;11.348;2022-12-07T07:26:23;96264.00;;;0.49;100.00
30339;BME280;795;49.296;11.348;2022-12-07T07:28:50;96268.78;;;0.44;100.00
30339;BME280;795;49.296;11.348;2022-12-07T07:31:17;96265.38;;;0.55;100.00
30339;BME280;795;49.296;11.348;2022-12-07T07:33:46;96259.63;;;0.61;100.00
30339;BME280;795;49.296;11.348;2022-12-07T07:36:13;96264.00;;;0.49;100.00
30339;BME280;795;49.296;11.348;2022-12-07T07:38:40;96267.13;;;0.67;100.00
30339;BME280;795;49.296;11.348;2022-12-07T07:41:07;96267.72;;;0.71;100.00
30339;BME280;795;49.296;11.348;2022-12-07T07:43:34;96272.50;;;0.65;100.00
30339;BME280;795;49.296;11.348;2022-12-07T07:46:01;96268.91;;;0.66;100.00
30339;BME280;795;49.296;11.348;2022-12-07T07:48:28;96265.84;;;0.73;100.00
30339;BME280;795;49.296;11.348;2022-12-07T07:50:55;96264.78;;;0.75;100.00
30339;BME280;795;49.296;11.348;2022-12-07T07:53:22;96264.84;;;0.74;100.00
30339;BME280;795;49.296;11.348;2022-12-07T07:55:54;96263.06;;;0.74;100.00
30339;BME280;795;49.296;11.348;2022-12-07T07:58:22;96263.00;;;0.87;100.00
30339;BME280;795;49.296;11.348;2022-12-07T08:00:49;96261.03;;;0.78;100.00
30339;BME280;795;49.296;11.348;2022-12-07T08:03:17;96267.13;;;0.67;100.00
30339;BME280;795;49.296;11.348;2022-12-07T08:05:44;96268.72;;;0.81;100.00
30339;BME280;795;49.296;11.348;2022-12-07T08:08:11;96274.53;;;0.86;100.00
30339;BME280;795;49.296;11.348;2022-12-07T08:10:39;96269.53;;;0.94;100.00
30339;BME280;795;49.296;11.348;2022-12-07T08:13:06;96273.97;;;0.93;100.00
30339;BME280;795;49.296;11.348;2022-12-07T08:15:44;96278.22;;;1.07;100.00
30339;BME280;795;49.296;11.348;2022-12-07T08:18:15;96271.69;;;1.00;100.00
30339;BME280;795;49.296;11.348;2022-12-07T08:20:42;96272.09;;;1.06;100.00
30339;BME280;795;49.296;11.348;2022-12-07T08:23:11;96274.25;;;1.01;100.00
30339;BME280;795;49.296;11.348;2022-12-07T08:25:38;96274.69;;;0.95;100.00
30339;BME280;795;49.296;11.348;2022-12-07T08:28:06;96270.09;;;1.21;100.00
30339;BME280;795;49.296;11.348;2022-12-07T08:30:33;96269.41;;;1.30;100.00
30339;BME280;795;49.296;11.348;2022-12-07T08:33:00;96275.09;;;1.48;100.00
30339;BME280;795;49.296;11.348;2022-12-07T08:35:27;96272.91;;;1.42;100.00
30339;BME280;795;49.296;11.348;2022-12-07T08:37:54;96274.34;;;1.46;100.00
30339;BME280;795;49.296;11.348;2022-12-07T08:40:21;96276.91;;;1.47;100.00
30339;BME280;795;49.296;11.348;2022-12-07T08:42:51;96276.41;;;1.53;100.00
30339;BME280;795;49.296;11.348;2022-12-07T08:45:20;96269.34;;;1.65;100.00
30339;BME280;795;49.296;11.348;2022-12-07T08:48:06;96272.72;;;1.67;100.00
30339;BME280;795;49.296;11.348;2022-12-07T08:50:37;96280.53;;;1.68;100.00
30339;BME280;795;49.296;11.348;2022-12-07T08:53:07;96274.41;;;1.57;100.00
30339;BME280;795;49.296;11.348;2022-12-07T08:55:35;96270.44;;;1.62;100.00
30339;BME280;795;49.296;11.348;2022-12-07T08:58:03;96267.44;;;1.67;100.00
30339;BME280;795;49.296;11.348;2022-12-07T09:03:53;96273.09;;;1.62;100.00
30339;BME280;795;49.296;11.348;2022-12-07T09:06:20;96271.88;;;1.77;100.00
30339;BME280;795;49.296;11.348;2022-12-07T09:08:54;96260.09;;;1.92;100.00
30339;BME280;795;49.296;11.348;2022-12-07T09:11:22;96254.81;;;2.15;100.00
30339;BME280;795;49.296;11.348;2022-12-07T09:13:55;96250.84;;;2.20;100.00
30339;BME280;795;49.296;11.348;2022-12-07T09:16:22;96250.84;;;2.20;100.00
30339;BME280;795;49.296;11.348;2022-12-07T09:18:49;96246.47;;;2.30;100.00
30339;BME280;795;49.296;11.348;2022-12-07T09:21:16;96247.56;;;2.28;100.00
30339;BME280;795;49.296;11.348;2022-12-07T09:23:43;96241.03;;;2.43;100.00
30339;BME280;795;49.296;11.348;2022-12-07T09:26:10;96243.69;;;2.43;100.00
30339;BME280;795;49.296;11.348;2022-12-07T09:28:38;96241.22;;;2.62;100.00
30339;BME280;795;49.296;11.348;2022-12-07T09:31:06;96244.72;;;2.62;100.00
30339;BME280;795;49.296;11.348;2022-12-07T09:33:57;96249.16;;;2.73;100.00
30339;BME280;795;49.296;11.348;2022-12-07T09:36:25;96248.06;;;2.76;100.00
30339;BME280;795;49.296;11.348;2022-12-07T09:38:53;96236.38;;;2.78;100.00
30339;BME280;795;49.296;11.348;2022-12-07T09:41:24;96244.53;;;2.86;100.00
30339;BME280;795;49.296;11.348;2022-12-07T09:44:00;96245.19;;;2.67;100.00
30339;BME280;795;49.296;11.348;2022-12-07T09:46:37;96234.34;;;2.71;100.00
30339;BME280;795;49.296;11.348;2022-12-07T09:49:19;96233.53;;;2.59;100.00
30339;BME280;795;49.296;11.348;2022-12-07T09:51:47;96236.53;;;2.54;100.00
30339;BME280;795;49.296;11.348;2022-12-07T09:54:16;96240.88;;;2.55;100.00
30339;BME280;795;49.296;11.348;2022-12-07T09:56:44;96233.75;;;2.67;100.00
30339;BME280;795;49.296;11.348;2022-12-07T09:59:18;96236.78;;;2.62;100.00
30339;BME280;795;49.296;11.348;2022-12-07T10:01:49;96229.97;;;2.49;100.00
30339;BME280;795;49.296;11.348;2022-12-07T10:04:23;96229.44;;;2.55;100.00
30339;BME280;795;49.296;11.348;2022-12-07T10:06:51;96219.06;;;2.63;100.00
30339;BME280;795;49.296;11.348;2022-12-07T10:09:21;96222.09;;;2.58;100.00
30339;BME280;795;49.296;11.348;2022-12-07T10:12:09;96221.91;;;2.39;100.00
30339;BME280;795;49.296;11.348;2022-12-07T10:14:54;96228.91;;;2.18;100.00
30339;BME280;795;49.296;11.348;2022-12-07T10:17:51;96222.78;;;2.07;100.00
30339;BME280;795;49.296;11.348;2022-12-07T10:20:26;96218.09;;;2.10;100.00
30339;BME280;795;49.296;11.348;2022-12-07T10:23:01;96220.84;;;2.09;100.00
30339;BME280;795;49.296;11.348;2022-12-07T10:25:36;96228.00;;;2.08;100.00
30339;BME280;795;49.296;11.348;2022-12-07T10:28:16;96214.84;;;2.07;100.00
30339;BME280;795;49.296;11.348;2022-12-07T10:31:15;96219.69;;;2.13;100.00
30339;BME280;795;49.296;11.348;2022-12-07T10:33:59;96213.16;;;2.17;100.00
30339;BME280;795;49.296;11.348;2022-12-07T10:36:36;96210.41;;;2.07;100.00
30339;BME280;795;49.296;11.348;2022-12-07T10:39:20;96209.31;;;2.10;100.00
30339;BME280;795;49.296;11.348;2022-12-07T10:42:03;96212.44;;;2.15;100.00
30339;BME280;795;49.296;11.348;2022-12-07T10:44:33;96205.72;;;2.11;100.00
30339;BME280;795;49.296;11.348;2022-12-07T10:47:46;96199.19;;;2.15;100.00
30339;BME280;795;49.296;11.348;2022-12-07T10:50:58;96202.09;;;2.23;100.00
30339;BME280;795;49.296;11.348;2022-12-07T10:54:04;96207.53;;;2.10;100.00
30339;BME280;795;49.296;11.348;2022-12-07T11:00:36;96204.75;;;2.12;100.00
30339;BME280;795;49.296;11.348;2022-12-07T11:03:53;96192.31;;;2.23;100.00
30339;BME280;795;49.296;11.348;2022-12-07T11:10:28;96190.50;;;2.35;100.00
30339;BME280;795;49.296;11.348;2022-12-07T11:16:22;96181.66;;;2.56;100.00
30339;BME280;795;49.296;11.348;2022-12-07T11:22:36;96180.41;;;2.60;100.00
30339;BME280;795;49.296;11.348;2022-12-07T11:25:42;96177.13;;;2.68;100.00
30339;BME280;795;49.296;11.348;2022-12-07T11:32:13;96168.94;;;2.71;100.00
30339;BME280;795;49.296;11.348;2022-12-07T11:35:37;96165.56;;;2.69;100.00
30339;BME280;795;49.296;11.348;2022-12-07T11:41:09;96162.88;;;2.80;100.00
30339;BME280;795;49.296;11.348;2022-12-07T11:46:35;96160.69;;;2.85;100.00
30339;BME280;795;49.296;11.348;2022-12-07T11:49:40;96157.56;;;2.80;100.00
30339;BME280;795;49.296;11.348;2022-12-07T11:52:30;96157.19;;;2.85;100.00
30339;BME280;795;49.296;11.348;2022-12-07T11:55:00;96152.50;;;2.77;100.00
30339;BME280;795;49.296;11.348;2022-12-07T11:58:03;96149.38;;;2.83;100.00
30339;BME280;795;49.296;11.348;2022-12-07T12:00:32;96149.50;;;3.02;100.00
30339;BME280;795;49.296;11.348;2022-12-07T12:03:15;96146.56;;;3.05;100.00
30339;BME280;795;49.296;11.348;2022-12-07T12:05:44;96144.19;;;3.02;100.00
30339;BME280;795;49.296;11.348;2022-12-07T12:08:26;96139.66;;;2.93;100.00
30339;BME280;795;49.296;11.348;2022-12-07T12:11:39;96138.88;;;3.02;100.00
30339;BME280;795;49.296;11.348;2022-12-07T12:18:00;96142.19;;;2.95;100.00
30339;BME280;795;49.296;11.348;2022-12-07T12:20:45;96140.50;;;2.94;100.00
30339;BME280;795;49.296;11.348;2022-12-07T12:23:34;96136.56;;;3.09;100.00
30339;BME280;795;49.296;11.348;2022-12-07T12:26:07;96133.06;;;3.08;100.00
30339;BME280;795;49.296;11.348;2022-12-07T12:29:34;96132.22;;;3.08;100.00
30339;BME280;795;49.296;11.348;2022-12-07T12:32:40;96129.38;;;3.00;100.00
30339;BME280;795;49.296;11.348;2022-12-07T12:35:35;96130.41;;;3.08;100.00
30339;BME280;795;49.296;11.348;2022-12-07T12:38:33;96130.00;;;3.13;100.00
30339;BME280;795;49.296;11.348;2022-12-07T12:41:02;96127.84;;;3.27;100.00
30339;BME280;795;49.296;11.348;2022-12-07T12:43:49;96115.22;;;3.41;100.00
30339;BME280;795;49.296;11.348;2022-12-07T12:52:51;96125.53;;;3.34;100.00
30339;BME280;795;49.296;11.348;2022-12-07T13:03:56;96108.94;;;3.42;100.00
30339;BME280;795;49.296;11.348;2022-12-07T13:08:58;96103.78;;;3.40;100.00
30339;BME280;795;49.296;11.348;2022-12-07T13:11:40;96102.03;;;3.29;100.00
30339;BME280;795;49.296;11.348;2022-12-07T13:17:12;96104.88;;;3.07;100.00
30339;BME280;795;49.296;11.348;2022-12-07T13:20:06;96106.78;;;3.05;100.00
30339;BME280;795;49.296;11.348;2022-12-07T13:22:48;96102.38;;;3.15;100.00
30339;BME280;795;49.296;11.348;2022-12-07T13:25:43;96104.41;;;3.02;100.00
30339;BME280;795;49.296;11.348;2022-12-07T13:28:18;96096.91;;;3.07;100.00
30339;BME280;795;49.296;11.348;2022-12-07T13:33:45;96101.31;;;2.97;100.00
30339;BME280;795;49.296;11.348;2022-12-07T13:36:25;96098.22;;;2.92;100.00
30339;BME280;795;49.296;11.348;2022-12-07T13:38:57;96097.56;;;3.00;100.00
30339;BME280;795;49.296;11.348;2022-12-07T13:41:30;96093.09;;;3.00;100.00
30339;BME280;795;49.296;11.348;2022-12-07T13:44:15;96099.38;;;2.99;100.00
30339;BME280;795;49.296;11.348;2022-12-07T13:47:16;96104.69;;;2.99;100.00
30339;BME280;795;49.296;11.348;2022-12-07T13:49:52;96099.88;;;2.93;100.00
30339;BME280;795;49.296;11.348;2022-12-07T13:52:28;96095.34;;;2.84;100.00
30339;BME280;795;49.296;11.348;2022-12-07T13:57:35;96099.97;;;2.82;100.00
30339;BME280;795;49.296;11.348;2022-12-07T14:00:17;96107.44;;;2.77;100.00
30339;BME280;795;49.296;11.348;2022-12-07T14:03:03;96103.84;;;2.78;100.00
30339;BME280;795;49.296;11.348;2022-12-07T14:05:34;96108.22;;;2.68;100.00
30339;BME280;795;49.296;11.348;2022-12-07T14:10:53;96114.63;;;2.65;100.00
30339;BME280;795;49.296;11.348;2022-12-07T14:14:19;96111.66;;;2.59;100.00
30339;BME280;795;49.296;11.348;2022-12-07T14:16:36;96114.41;;;2.57;100.00
30339;BME280;795;49.296;11.348;2022-12-07T14:19:58;96118.16;;;2.55;100.00
30339;BME280;795;49.296;11.348;2022-12-07T14:22:38;96116.97;;;2.59;100.00
30339;BME280;795;49.296;11.348;2022-12-07T14:25:25;96114.03;;;2.62;100.00
30339;BME280;795;49.296;11.348;2022-12-07T14:28:00;96117.59;;;2.51;100.00
30339;BME280;795;49.296;11.348;2022-12-07T14:30:32;96112.88;;;2.55;100.00
30339;BME280;795;49.296;11.348;2022-12-07T14:33:04;96113.72;;;2.55;100.00
30339;BME280;795;49.296;11.348;2022-12-07T14:35:32;96103.97;;;2.56;100.00
30339;BME280;795;49.296;11.348;2022-12-07T14:37:59;96105.63;;;2.57;100.00
30339;BME280;795;49.296;11.348;2022-12-07T14:40:29;96099.84;;;2.52;100.00
30339;BME280;795;49.296;11.348;2022-12-07T14:43:04;96103.50;;;2.51;100.00
30339;BME280;795;49.296;11.348;2022-12-07T14:45:32;96101.81;;;2.50;100.00
30339;BME280;795;49.296;11.348;2022-12-07T14:47:59;96100.25;;;2.47;100.00
30339;BME280;795;49.296;11.348;2022-12-07T14:50:52;96094.13;;;2.47;100.00
30339;BME280;795;49.296;11.348;2022-12-07T14:53:46;96097.22;;;2.52;100.00
30339;BME280;795;49.296;11.348;2022-12-07T14:56:23;96094.13;;;2.47;100.00
30339;BME280;795;49.296;11.348;2022-12-07T14:58:49;96101.56;;;2.53;100.00
30339;BME280;795;49.296;11.348;2022-12-07T15:01:16;96096.56;;;2.39;100.00
30339;BME280;795;49.296;11.348;2022-12-07T15:03:43;96093.28;;;2.46;100.00
30339;BME280;795;49.296;11.348;2022-12-07T15:06:17;96086.34;;;2.34;100.00
30339;BME280;795;49.296;11.348;2022-12-07T15:08:44;96084.56;;;2.35;100.00